sensor_id;sensor_type;location;lat;lon;timestamp;P1;durP1;ratioP1;P2;durP2;ratioP2
2001;SDS011;1003;48.002;7.788;2022-08-03T00:01:05;2.13;;;1.93;;
2001;SDS011;1003;48.002;7.788;2022-08-03T00:03:33;4.03;;;2.10;;
2001;SDS011;1003;48.002;7.788;2022-08-03T00:06:00;2.87;;;2.17;;
2001;SDS011;1003;48.002;7.788;2022-08-03T00:08:27;3.73;;;2.20;;
2001;SDS011;1003;48.002;7.788;2022-08-03T00:10:54;2.20;;;2.00;;
2001;SDS011;1003;48.002;7.788;2022-08-03T00:13:33;2.90;;;2.30;;
2001;SDS011;1003;48.002;7.788;2022-08-03T00:16:02;3.73;;;1.90;;
2001;SDS011;1003;48.002;7.788;2022-08-03T00:18:30;3.13;;;2.10;;
2001;SDS011;1003;48.002;7.788;2022-08-03T00:20:57;2.17;;;1.97;;
2001;SDS011;1003;48.002;7.788;2022-08-03T00:23:24;2.97;;;2.10;;
2001;SDS011;1003;48.002;7.788;2022-08-03T00:25:51;3.13;;;2.20;;
2001;SDS011;1003;48.002;7.788;2022-08-03T00:28:18;3.50;;;2.03;;
2001;SDS011;1003;48.002;7.788;2022-08-03T00:30:45;2.27;;;2.07;;
2001;SDS011;1003;48.002;7.788;2022-08-03T00:33:14;1.90;;;1.80;;
2001;SDS011;1003;48.002;7.788;2022-08-03T00:35:41;2.17;;;1.97;;
2001;SDS011;1003;48.002;7.788;2022-08-03T00:38:09;2.43;;;1.83;;
2001;SDS011;1003;48.002;7.788;2022-08-03T00:40:36;2.47;;;2.10;;
2001;SDS011;1003;48.002;7.788;2022-08-03T00:43:03;2.37;;;2.17;;
2001;SDS011;1003;48.002;7.788;2022-08-03T00:45:33;2.30;;;2.00;;
2001;SDS011;1003;48.002;7.788;2022-08-03T00:48:04;7.03;;;2.20;;
2001;SDS011;1003;48.002;7.788;2022-08-03T00:50:38;1.90;;;1.80;;
2001;SDS011;1003;48.002;7.788;2022-08-03T00:53:08;2.47;;;2.00;;
2001;SDS011;1003;48.002;7.788;2022-08-03T00:55:37;2.70;;;2.07;;
2001;SDS011;1003;48.002;7.788;2022-08-03T00:58:05;2.73;;;2.10;;
2001;SDS011;1003;48.002;7.788;2022-08-03T01:00:35;3.50;;;2.10;;
2001;SDS011;1003;48.002;7.788;2022-08-03T01:03:06;2.07;;;1.90;;
2001;SDS011;1003;48.002;7.788;2022-08-03T01:05:39;1.90;;;1.80;;
2001;SDS011;1003;48.002;7.788;2022-08-03T01:08:21;2.23;;;2.03;;
2001;SDS011;1003;48.002;7.788;2022-08-03T01:11:05;1.93;;;1.83;;
2001;SDS011;1003;48.002;7.788;2022-08-03T01:13:42;1.80;;;1.70;;
2001;SDS011;1003;48.002;7.788;2022-08-03T01:16:27;1.83;;;1.70;;
2001;SDS011;1003;48.002;7.788;2022-08-03T01:19:04;2.30;;;1.90;;
2001;SDS011;1003;48.002;7.788;2022-08-03T01:22:02;2.50;;;1.73;;
2001;SDS011;1003;48.002;7.788;2022-08-03T01:24:55;1.90;;;1.80;;
2001;SDS011;1003;48.002;7.788;2022-08-03T01:27:35;1.73;;;1.63;;
2001;SDS011;1003;48.002;7.788;2022-08-03T01:30:21;1.70;;;1.60;;
2001;SDS011;1003;48.002;7.788;2022-08-03T01:32:56;1.60;;;1.50;;
2001;SDS011;1003;48.002;7.788;2022-08-03T01:35:31;2.20;;;2.00;;
2001;SDS011;1003;48.002;7.788;2022-08-03T01:38:02;1.63;;;1.53;;
2001;SDS011;1003;48.002;7.788;2022-08-03T01:40:36;3.17;;;1.87;;
2001;SDS011;1003;48.002;7.788;2022-08-03T01:43:09;2.63;;;1.70;;
2001;SDS011;1003;48.002;7.788;2022-08-03T01:45:42;1.73;;;1.63;;
2001;SDS011;1003;48.002;7.788;2022-08-03T01:48:11;2.40;;;1.70;;
2001;SDS011;1003;48.002;7.788;2022-08-03T01:50:42;1.70;;;1.60;;
2001;SDS011;1003;48.002;7.788;2022-08-03T01:53:12;1.70;;;1.60;;
2001;SDS011;1003;48.002;7.788;2022-08-03T01:55:41;2.03;;;1.83;;
2001;SDS011;1003;48.002;7.788;2022-08-03T01:58:11;2.33;;;1.73;;
2001;SDS011;1003;48.002;7.788;2022-08-03T02:00:43;2.67;;;1.80;;
2001;SDS011;1003;48.002;7.788;2022-08-03T02:03:14;1.57;;;1.47;;
2001;SDS011;1003;48.002;7.788;2022-08-03T02:05:43;2.80;;;1.83;;
2001;SDS011;1003;48.002;7.788;2022-08-03T02:08:12;2.37;;;2.00;;
2001;SDS011;1003;48.002;7.788;2022-08-03T02:10:43;2.73;;;1.83;;
2001;SDS011;1003;48.002;7.788;2022-08-03T02:13:15;1.70;;;1.60;;
2001;SDS011;1003;48.002;7.788;2022-08-03T02:15:47;1.90;;;1.80;;
2001;SDS011;1003;48.002;7.788;2022-08-03T02:18:17;2.00;;;1.80;;
2001;SDS011;1003;48.002;7.788;2022-08-03T02:20:46;1.97;;;1.87;;
2001;SDS011;1003;48.002;7.788;2022-08-03T02:23:15;1.83;;;1.73;;
2001;SDS011;1003;48.002;7.788;2022-08-03T02:25:43;1.90;;;1.80;;
2001;SDS011;1003;48.002;7.788;2022-08-03T02:28:16;1.90;;;1.80;;
2001;SDS011;1003;48.002;7.788;2022-08-03T02:30:49;1.87;;;1.73;;
2001;SDS011;1003;48.002;7.788;2022-08-03T02:33:22;2.67;;;1.77;;
2001;SDS011;1003;48.002;7.788;2022-08-03T02:35:55;2.60;;;1.80;;
2001;SDS011;1003;48.002;7.788;2022-08-03T02:38:28;1.93;;;1.80;;
2001;SDS011;1003;48.002;7.788;2022-08-03T02:41:00;2.73;;;1.90;;
2001;SDS011;1003;48.002;7.788;2022-08-03T02:43:33;2.67;;;1.90;;
2001;SDS011;1003;48.002;7.788;2022-08-03T02:46:04;2.07;;;1.87;;
2001;SDS011;1003;48.002;7.788;2022-08-03T02:48:35;1.83;;;1.73;;
2001;SDS011;1003;48.002;7.788;2022-08-03T02:51:06;2.87;;;1.80;;
2001;SDS011;1003;48.002;7.788;2022-08-03T02:53:34;3.17;;;1.90;;
2001;SDS011;1003;48.002;7.788;2022-08-03T02:56:02;2.30;;;1.90;;
2001;SDS011;1003;48.002;7.788;2022-08-03T02:58:32;2.10;;;1.90;;
2001;SDS011;1003;48.002;7.788;2022-08-03T03:01:00;2.67;;;1.53;;
2001;SDS011;1003;48.002;7.788;2022-08-03T03:03:31;3.17;;;1.90;;
2001;SDS011;1003;48.002;7.788;2022-08-03T03:06:01;2.23;;;1.53;;
2001;SDS011;1003;48.002;7.788;2022-08-03T03:08:29;2.17;;;1.77;;
2001;SDS011;1003;48.002;7.788;2022-08-03T03:10:58;1.97;;;1.87;;
2001;SDS011;1003;48.002;7.788;2022-08-03T03:13:27;1.90;;;1.80;;
2001;SDS011;1003;48.002;7.788;2022-08-03T03:15:56;1.70;;;1.60;;
2001;SDS011;1003;48.002;7.788;2022-08-03T03:18:28;2.07;;;1.90;;
2001;SDS011;1003;48.002;7.788;2022-08-03T03:20:58;2.10;;;1.90;;
2001;SDS011;1003;48.002;7.788;2022-08-03T03:23:28;3.10;;;2.13;;
2001;SDS011;1003;48.002;7.788;2022-08-03T03:25:59;2.10;;;1.90;;
2001;SDS011;1003;48.002;7.788;2022-08-03T03:28:26;2.30;;;1.67;;
2001;SDS011;1003;48.002;7.788;2022-08-03T03:30:55;1.80;;;1.70;;
2001;SDS011;1003;48.002;7.788;2022-08-03T03:33:23;4.23;;;2.00;;
2001;SDS011;1003;48.002;7.788;2022-08-03T03:35:55;2.50;;;1.70;;
2001;SDS011;1003;48.002;7.788;2022-08-03T03:38:23;1.80;;;1.70;;
2001;SDS011;1003;48.002;7.788;2022-08-03T03:40:50;1.93;;;1.80;;
2001;SDS011;1003;48.002;7.788;2022-08-03T03:43:18;3.37;;;1.80;;
2001;SDS011;1003;48.002;7.788;2022-08-03T03:45:47;3.90;;;1.93;;
2001;SDS011;1003;48.002;7.788;2022-08-03T03:48:17;3.17;;;2.10;;
2001;SDS011;1003;48.002;7.788;2022-08-03T03:50:47;1.70;;;1.60;;
2001;SDS011;1003;48.002;7.788;2022-08-03T03:53:16;1.80;;;1.70;;
2001;SDS011;1003;48.002;7.788;2022-08-03T03:55:43;1.90;;;1.80;;
2001;SDS011;1003;48.002;7.788;2022-08-03T03:58:10;1.90;;;1.80;;
2001;SDS011;1003;48.002;7.788;2022-08-03T04:00:38;2.30;;;2.10;;
2001;SDS011;1003;48.002;7.788;2022-08-03T04:03:06;2.10;;;1.87;;
2001;SDS011;1003;48.002;7.788;2022-08-03T04:05:36;2.27;;;1.87;;
2001;SDS011;1003;48.002;7.788;2022-08-03T04:08:22;1.70;;;1.60;;
2001;SDS011;1003;48.002;7.788;2022-08-03T04:11:09;1.80;;;1.70;;
2001;SDS011;1003;48.002;7.788;2022-08-03T04:13:43;1.90;;;1.80;;
2001;SDS011;1003;48.002;7.788;2022-08-03T04:16:17;2.13;;;1.93;;
2001;SDS011;1003;48.002;7.788;2022-08-03T04:18:48;2.67;;;2.00;;
2001;SDS011;1003;48.002;7.788;2022-08-03T04:21:20;2.77;;;2.17;;
2001;SDS011;1003;48.002;7.788;2022-08-03T04:23:52;4.40;;;2.07;;
2001;SDS011;1003;48.002;7.788;2022-08-03T04:26:26;2.27;;;1.93;;
2001;SDS011;1003;48.002;7.788;2022-08-03T04:28:59;2.73;;;2.00;;
2001;SDS011;1003;48.002;7.788;2022-08-03T04:31:27;2.10;;;1.90;;
2001;SDS011;1003;48.002;7.788;2022-08-03T04:33:55;2.40;;;1.80;;
2001;SDS011;1003;48.002;7.788;2022-08-03T04:36:24;3.23;;;1.90;;
2001;SDS011;1003;48.002;7.788;2022-08-03T04:39:00;3.57;;;1.93;;
2001;SDS011;1003;48.002;7.788;2022-08-03T04:41:31;2.10;;;2.00;;
2001;SDS011;1003;48.002;7.788;2022-08-03T04:44:01;2.37;;;1.80;;
2001;SDS011;1003;48.002;7.788;2022-08-03T04:46:30;2.57;;;2.10;;
2001;SDS011;1003;48.002;7.788;2022-08-03T04:49:03;1.73;;;1.63;;
2001;SDS011;1003;48.002;7.788;2022-08-03T04:51:32;2.30;;;1.90;;
2001;SDS011;1003;48.002;7.788;2022-08-03T04:54:03;2.43;;;1.80;;
2001;SDS011;1003;48.002;7.788;2022-08-03T04:56:31;2.10;;;1.93;;
2001;SDS011;1003;48.002;7.788;2022-08-03T04:58:59;2.40;;;2.20;;
2001;SDS011;1003;48.002;7.788;2022-08-03T05:01:26;4.23;;;2.13;;
2001;SDS011;1003;48.002;7.788;2022-08-03T05:03:53;2.23;;;2.03;;
2001;SDS011;1003;48.002;7.788;2022-08-03T05:06:20;2.20;;;2.00;;
2001;SDS011;1003;48.002;7.788;2022-08-03T05:08:47;2.03;;;1.87;;
2001;SDS011;1003;48.002;7.788;2022-08-03T05:11:16;2.20;;;2.00;;
2001;SDS011;1003;48.002;7.788;2022-08-03T05:13:43;3.97;;;2.10;;
2001;SDS011;1003;48.002;7.788;2022-08-03T05:16:11;4.67;;;2.10;;
2001;SDS011;1003;48.002;7.788;2022-08-03T05:18:39;3.17;;;2.10;;
2001;SDS011;1003;48.002;7.788;2022-08-03T05:21:07;2.90;;;2.10;;
2001;SDS011;1003;48.002;7.788;2022-08-03T05:23:36;2.67;;;2.00;;
2001;SDS011;1003;48.002;7.788;2022-08-03T05:26:03;3.13;;;2.00;;
2001;SDS011;1003;48.002;7.788;2022-08-03T05:28:31;2.83;;;1.80;;
2001;SDS011;1003;48.002;7.788;2022-08-03T05:30:58;2.63;;;1.93;;
2001;SDS011;1003;48.002;7.788;2022-08-03T05:33:25;2.23;;;1.70;;
2001;SDS011;1003;48.002;7.788;2022-08-03T05:35:52;2.40;;;1.80;;
2001;SDS011;1003;48.002;7.788;2022-08-03T05:38:20;1.63;;;1.53;;
2001;SDS011;1003;48.002;7.788;2022-08-03T05:40:47;1.70;;;1.60;;
2001;SDS011;1003;48.002;7.788;2022-08-03T05:43:14;2.22;;;1.52;;
2001;SDS011;1003;48.002;7.788;2022-08-03T05:45:42;2.55;;;1.40;;
2001;SDS011;1003;48.002;7.788;2022-08-03T05:48:09;2.05;;;1.45;;
2001;SDS011;1003;48.002;7.788;2022-08-03T05:50:36;2.95;;;1.70;;
2001;SDS011;1003;48.002;7.788;2022-08-03T05:53:03;1.75;;;1.40;;
2001;SDS011;1003;48.002;7.788;2022-08-03T05:55:30;1.40;;;1.30;;
2001;SDS011;1003;48.002;7.788;2022-08-03T05:57:57;1.80;;;1.55;;
2001;SDS011;1003;48.002;7.788;2022-08-03T06:00:27;1.80;;;1.70;;
2001;SDS011;1003;48.002;7.788;2022-08-03T06:02:55;1.80;;;1.70;;
2001;SDS011;1003;48.002;7.788;2022-08-03T06:05:22;1.85;;;1.60;;
2001;SDS011;1003;48.002;7.788;2022-08-03T06:07:51;1.98;;;1.77;;
2001;SDS011;1003;48.002;7.788;2022-08-03T06:10:18;2.22;;;1.63;;
2001;SDS011;1003;48.002;7.788;2022-08-03T06:12:46;1.70;;;1.60;;
2001;SDS011;1003;48.002;7.788;2022-08-03T06:15:14;1.80;;;1.70;;
2001;SDS011;1003;48.002;7.788;2022-08-03T06:17:45;2.60;;;1.80;;
2001;SDS011;1003;48.002;7.788;2022-08-03T06:20:17;1.85;;;1.70;;
2001;SDS011;1003;48.002;7.788;2022-08-03T06:22:45;2.67;;;2.00;;
2001;SDS011;1003;48.002;7.788;2022-08-03T06:25:14;1.85;;;1.67;;
2001;SDS011;1003;48.002;7.788;2022-08-03T06:27:41;2.03;;;1.70;;
2001;SDS011;1003;48.002;7.788;2022-08-03T06:30:09;1.70;;;1.60;;
2001;SDS011;1003;48.002;7.788;2022-08-03T06:32:38;3.00;;;2.00;;
2001;SDS011;1003;48.002;7.788;2022-08-03T06:35:06;2.33;;;2.13;;
2001;SDS011;1003;48.002;7.788;2022-08-03T06:37:42;2.70;;;2.40;;
2001;SDS011;1003;48.002;7.788;2022-08-03T06:40:10;2.85;;;2.22;;
2001;SDS011;1003;48.002;7.788;2022-08-03T06:42:39;2.80;;;2.40;;
2001;SDS011;1003;48.002;7.788;2022-08-03T06:45:08;2.60;;;2.35;;
2001;SDS011;1003;48.002;7.788;2022-08-03T06:47:36;2.10;;;2.00;;
2001;SDS011;1003;48.002;7.788;2022-08-03T06:50:05;3.05;;;2.20;;
2001;SDS011;1003;48.002;7.788;2022-08-03T06:52:34;3.35;;;2.20;;
2001;SDS011;1003;48.002;7.788;2022-08-03T06:55:03;2.90;;;2.35;;
2001;SDS011;1003;48.002;7.788;2022-08-03T06:57:32;2.58;;;2.22;;
2001;SDS011;1003;48.002;7.788;2022-08-03T06:59:59;2.88;;;2.38;;
2001;SDS011;1003;48.002;7.788;2022-08-03T07:02:27;2.92;;;2.50;;
2001;SDS011;1003;48.002;7.788;2022-08-03T07:04:54;2.45;;;2.05;;
2001;SDS011;1003;48.002;7.788;2022-08-03T07:07:22;2.50;;;2.30;;
2001;SDS011;1003;48.002;7.788;2022-08-03T07:09:49;2.40;;;2.20;;
2001;SDS011;1003;48.002;7.788;2022-08-03T07:12:17;3.72;;;2.53;;
2001;SDS011;1003;48.002;7.788;2022-08-03T07:14:44;2.63;;;2.10;;
2001;SDS011;1003;48.002;7.788;2022-08-03T07:17:14;2.63;;;2.42;;
2001;SDS011;1003;48.002;7.788;2022-08-03T07:19:41;4.03;;;2.40;;
2001;SDS011;1003;48.002;7.788;2022-08-03T07:22:08;2.70;;;2.50;;
2001;SDS011;1003;48.002;7.788;2022-08-03T07:24:35;2.42;;;2.20;;
2001;SDS011;1003;48.002;7.788;2022-08-03T07:27:02;4.03;;;2.72;;
2001;SDS011;1003;48.002;7.788;2022-08-03T07:29:31;3.38;;;2.65;;
2001;SDS011;1003;48.002;7.788;2022-08-03T07:31:59;3.65;;;2.80;;
2001;SDS011;1003;48.002;7.788;2022-08-03T07:34:26;4.93;;;2.67;;
2001;SDS011;1003;48.002;7.788;2022-08-03T07:36:53;3.07;;;2.27;;
2001;SDS011;1003;48.002;7.788;2022-08-03T07:39:21;3.35;;;2.40;;
2001;SDS011;1003;48.002;7.788;2022-08-03T07:41:48;2.55;;;2.25;;
2001;SDS011;1003;48.002;7.788;2022-08-03T07:44:15;2.85;;;2.40;;
2001;SDS011;1003;48.002;7.788;2022-08-03T07:46:44;2.30;;;2.10;;
2001;SDS011;1003;48.002;7.788;2022-08-03T07:49:12;4.82;;;2.40;;
2001;SDS011;1003;48.002;7.788;2022-08-03T07:51:39;3.03;;;2.30;;
2001;SDS011;1003;48.002;7.788;2022-08-03T07:54:06;3.33;;;2.20;;
2001;SDS011;1003;48.002;7.788;2022-08-03T07:56:34;2.20;;;2.00;;
2001;SDS011;1003;48.002;7.788;2022-08-03T07:59:01;2.30;;;2.10;;
2001;SDS011;1003;48.002;7.788;2022-08-03T08:01:29;3.03;;;2.20;;
2001;SDS011;1003;48.002;7.788;2022-08-03T08:04:01;3.25;;;2.40;;
2001;SDS011;1003;48.002;7.788;2022-08-03T08:06:28;3.33;;;2.05;;
2001;SDS011;1003;48.002;7.788;2022-08-03T08:08:56;2.50;;;2.30;;
2001;SDS011;1003;48.002;7.788;2022-08-03T08:11:26;2.83;;;2.50;;
2001;SDS011;1003;48.002;7.788;2022-08-03T08:13:53;2.22;;;2.03;;
2001;SDS011;1003;48.002;7.788;2022-08-03T08:16:20;2.20;;;2.10;;
2001;SDS011;1003;48.002;7.788;2022-08-03T08:18:47;2.80;;;2.20;;
2001;SDS011;1003;48.002;7.788;2022-08-03T08:21:15;2.60;;;2.40;;
2001;SDS011;1003;48.002;7.788;2022-08-03T08:23:43;2.57;;;2.37;;
2001;SDS011;1003;48.002;7.788;2022-08-03T08:26:10;3.20;;;2.53;;
2001;SDS011;1003;48.002;7.788;2022-08-03T08:28:38;2.57;;;2.40;;
2001;SDS011;1003;48.002;7.788;2022-08-03T08:31:05;2.80;;;2.38;;
2001;SDS011;1003;48.002;7.788;2022-08-03T08:33:32;5.70;;;2.60;;
2001;SDS011;1003;48.002;7.788;2022-08-03T08:36:00;2.87;;;2.50;;
2001;SDS011;1003;48.002;7.788;2022-08-03T08:38:29;2.40;;;2.20;;
2001;SDS011;1003;48.002;7.788;2022-08-03T08:40:56;2.63;;;2.40;;
2001;SDS011;1003;48.002;7.788;2022-08-03T08:43:23;2.43;;;2.13;;
2001;SDS011;1003;48.002;7.788;2022-08-03T08:45:51;3.47;;;2.73;;
2001;SDS011;1003;48.002;7.788;2022-08-03T08:48:23;3.00;;;2.50;;
2001;SDS011;1003;48.002;7.788;2022-08-03T08:50:52;2.50;;;2.30;;
2001;SDS011;1003;48.002;7.788;2022-08-03T08:53:20;2.60;;;2.40;;
2001;SDS011;1003;48.002;7.788;2022-08-03T08:55:52;2.93;;;2.40;;
2001;SDS011;1003;48.002;7.788;2022-08-03T08:58:25;3.63;;;2.57;;
2001;SDS011;1003;48.002;7.788;2022-08-03T09:00:55;2.80;;;2.50;;
2001;SDS011;1003;48.002;7.788;2022-08-03T09:03:22;3.07;;;2.73;;
2001;SDS011;1003;48.002;7.788;2022-08-03T09:05:49;2.40;;;2.20;;
2001;SDS011;1003;48.002;7.788;2022-08-03T09:08:17;2.60;;;2.40;;
2001;SDS011;1003;48.002;7.788;2022-08-03T09:10:45;2.63;;;2.43;;
2001;SDS011;1003;48.002;7.788;2022-08-03T09:13:14;2.60;;;2.40;;
2001;SDS011;1003;48.002;7.788;2022-08-03T09:15:41;5.00;;;2.70;;
2001;SDS011;1003;48.002;7.788;2022-08-03T09:18:08;3.37;;;2.70;;
2001;SDS011;1003;48.002;7.788;2022-08-03T09:20:36;2.90;;;2.70;;
2001;SDS011;1003;48.002;7.788;2022-08-03T09:23:04;2.87;;;2.67;;
2001;SDS011;1003;48.002;7.788;2022-08-03T09:25:35;2.90;;;2.70;;
2001;SDS011;1003;48.002;7.788;2022-08-03T09:28:07;3.10;;;2.80;;
2001;SDS011;1003;48.002;7.788;2022-08-03T09:30:39;3.17;;;2.80;;
2001;SDS011;1003;48.002;7.788;2022-08-03T09:33:09;3.07;;;2.50;;
2001;SDS011;1003;48.002;7.788;2022-08-03T09:35:40;2.60;;;2.40;;
2001;SDS011;1003;48.002;7.788;2022-08-03T09:38:09;2.43;;;2.23;;
2001;SDS011;1003;48.002;7.788;2022-08-03T09:40:39;3.73;;;2.50;;
2001;SDS011;1003;48.002;7.788;2022-08-03T09:43:07;2.73;;;2.07;;
2001;SDS011;1003;48.002;7.788;2022-08-03T09:45:35;3.43;;;2.50;;
2001;SDS011;1003;48.002;7.788;2022-08-03T09:48:21;2.93;;;2.40;;
2001;SDS011;1003;48.002;7.788;2022-08-03T09:50:50;2.60;;;2.20;;
2001;SDS011;1003;48.002;7.788;2022-08-03T09:53:19;2.77;;;2.30;;
2001;SDS011;1003;48.002;7.788;2022-08-03T09:55:54;2.50;;;2.30;;
2001;SDS011;1003;48.002;7.788;2022-08-03T09:58:23;2.70;;;2.50;;
2001;SDS011;1003;48.002;7.788;2022-08-03T10:00:54;2.77;;;2.37;;
2001;SDS011;1003;48.002;7.788;2022-08-03T10:03:26;2.77;;;2.57;;
2001;SDS011;1003;48.002;7.788;2022-08-03T10:05:56;2.90;;;2.60;;
2001;SDS011;1003;48.002;7.788;2022-08-03T10:08:24;3.43;;;2.20;;
2001;SDS011;1003;48.002;7.788;2022-08-03T10:10:51;3.37;;;2.67;;
2001;SDS011;1003;48.002;7.788;2022-08-03T10:13:19;2.50;;;2.30;;
2001;SDS011;1003;48.002;7.788;2022-08-03T10:15:48;3.33;;;2.27;;
2001;SDS011;1003;48.002;7.788;2022-08-03T10:18:15;2.60;;;2.40;;
2001;SDS011;1003;48.002;7.788;2022-08-03T10:20:44;2.60;;;2.40;;
2001;SDS011;1003;48.002;7.788;2022-08-03T10:23:16;2.53;;;2.27;;
2001;SDS011;1003;48.002;7.788;2022-08-03T10:25:45;2.80;;;2.53;;
2001;SDS011;1003;48.002;7.788;2022-08-03T10:28:17;2.63;;;2.43;;
2001;SDS011;1003;48.002;7.788;2022-08-03T10:30:47;2.60;;;2.40;;
2001;SDS011;1003;48.002;7.788;2022-08-03T10:33:19;2.67;;;2.47;;
2001;SDS011;1003;48.002;7.788;2022-08-03T10:35:51;3.67;;;2.37;;
2001;SDS011;1003;48.002;7.788;2022-08-03T10:38:22;2.73;;;2.53;;
2001;SDS011;1003;48.002;7.788;2022-08-03T10:41:02;3.13;;;2.50;;
2001;SDS011;1003;48.002;7.788;2022-08-03T10:43:35;3.83;;;2.53;;
2001;SDS011;1003;48.002;7.788;2022-08-03T10:46:13;2.83;;;2.40;;
2001;SDS011;1003;48.002;7.788;2022-08-03T10:48:44;3.17;;;2.37;;
2001;SDS011;1003;48.002;7.788;2022-08-03T10:51:15;3.03;;;2.20;;
2001;SDS011;1003;48.002;7.788;2022-08-03T10:53:45;2.97;;;2.70;;
2001;SDS011;1003;48.002;7.788;2022-08-03T11:05:34;2.33;;;2.13;;
2001;SDS011;1003;48.002;7.788;2022-08-03T11:08:28;2.20;;;2.10;;
2001;SDS011;1003;48.002;7.788;2022-08-03T11:11:00;2.60;;;2.40;;
2001;SDS011;1003;48.002;7.788;2022-08-03T11:13:58;2.50;;;2.27;;
2001;SDS011;1003;48.002;7.788;2022-08-03T11:16:30;2.88;;;2.10;;
2001;SDS011;1003;48.002;7.788;2022-08-03T11:19:01;2.73;;;2.27;;
2001;SDS011;1003;48.002;7.788;2022-08-03T11:27:31;2.85;;;2.20;;
2001;SDS011;1003;48.002;7.788;2022-08-03T11:30:00;2.90;;;2.63;;
2001;SDS011;1003;48.002;7.788;2022-08-03T11:32:53;2.57;;;2.20;;
2001;SDS011;1003;48.002;7.788;2022-08-03T11:35:24;2.30;;;2.10;;
2001;SDS011;1003;48.002;7.788;2022-08-03T11:38:01;2.37;;;2.17;;
2001;SDS011;1003;48.002;7.788;2022-08-03T11:40:33;2.20;;;2.00;;
2001;SDS011;1003;48.002;7.788;2022-08-03T11:43:03;2.42;;;2.22;;
2001;SDS011;1003;48.002;7.788;2022-08-03T11:45:33;2.83;;;2.20;;
2001;SDS011;1003;48.002;7.788;2022-08-03T11:48:11;2.43;;;2.23;;
2001;SDS011;1003;48.002;7.788;2022-08-03T11:50:41;3.72;;;2.30;;
2001;SDS011;1003;48.002;7.788;2022-08-03T11:53:12;2.40;;;2.25;;
2001;SDS011;1003;48.002;7.788;2022-08-03T11:55:43;2.45;;;2.25;;
2001;SDS011;1003;48.002;7.788;2022-08-03T11:58:14;2.50;;;2.30;;
2001;SDS011;1003;48.002;7.788;2022-08-03T12:00:47;2.53;;;2.15;;
2001;SDS011;1003;48.002;7.788;2022-08-03T12:03:16;3.05;;;2.40;;
2001;SDS011;1003;48.002;7.788;2022-08-03T12:05:46;3.70;;;2.50;;
2001;SDS011;1003;48.002;7.788;2022-08-03T12:08:16;2.45;;;2.35;;
2001;SDS011;1003;48.002;7.788;2022-08-03T12:10:56;3.08;;;2.67;;
2001;SDS011;1003;48.002;7.788;2022-08-03T12:13:25;2.58;;;2.30;;
2001;SDS011;1003;48.002;7.788;2022-08-03T12:16:01;2.50;;;2.30;;
2001;SDS011;1003;48.002;7.788;2022-08-03T12:18:29;2.70;;;2.50;;
2001;SDS011;1003;48.002;7.788;2022-08-03T12:21:02;6.03;;;2.50;;
2001;SDS011;1003;48.002;7.788;2022-08-03T12:23:32;2.33;;;2.13;;
2001;SDS011;1003;48.002;7.788;2022-08-03T12:26:02;3.58;;;2.20;;
2001;SDS011;1003;48.002;7.788;2022-08-03T12:28:31;2.75;;;2.55;;
2001;SDS011;1003;48.002;7.788;2022-08-03T12:31:00;2.58;;;2.38;;
2001;SDS011;1003;48.002;7.788;2022-08-03T12:33:30;3.03;;;2.33;;
2001;SDS011;1003;48.002;7.788;2022-08-03T12:36:18;2.35;;;2.15;;
2001;SDS011;1003;48.002;7.788;2022-08-03T12:38:52;2.97;;;2.53;;
2001;SDS011;1003;48.002;7.788;2022-08-03T12:41:27;2.60;;;2.40;;
2001;SDS011;1003;48.002;7.788;2022-08-03T12:43:56;2.38;;;2.17;;
2001;SDS011;1003;48.002;7.788;2022-08-03T12:46:28;2.80;;;2.60;;
2001;SDS011;1003;48.002;7.788;2022-08-03T12:49:04;2.50;;;2.30;;
2001;SDS011;1003;48.002;7.788;2022-08-03T12:51:34;2.30;;;2.10;;
2001;SDS011;1003;48.002;7.788;2022-08-03T12:54:03;2.70;;;2.20;;
2001;SDS011;1003;48.002;7.788;2022-08-03T12:56:32;2.60;;;2.17;;
2001;SDS011;1003;48.002;7.788;2022-08-03T12:59:00;3.45;;;2.08;;
2001;SDS011;1003;48.002;7.788;2022-08-03T13:01:47;2.83;;;2.25;;
2001;SDS011;1003;48.002;7.788;2022-08-03T13:04:23;2.45;;;2.08;;
2001;SDS011;1003;48.002;7.788;2022-08-03T13:06:58;3.65;;;2.30;;
2001;SDS011;1003;48.002;7.788;2022-08-03T13:09:27;1.95;;;1.85;;
2001;SDS011;1003;48.002;7.788;2022-08-03T13:12:07;1.80;;;1.70;;
2001;SDS011;1003;48.002;7.788;2022-08-03T13:14:37;2.67;;;1.88;;
2001;SDS011;1003;48.002;7.788;2022-08-03T13:17:04;2.20;;;2.08;;
2001;SDS011;1003;48.002;7.788;2022-08-03T13:19:32;2.28;;;1.92;;
2001;SDS011;1003;48.002;7.788;2022-08-03T13:22:00;2.20;;;2.00;;
2001;SDS011;1003;48.002;7.788;2022-08-03T13:24:36;2.28;;;2.10;;
2001;SDS011;1003;48.002;7.788;2022-08-03T13:27:03;4.90;;;2.08;;
2001;SDS011;1003;48.002;7.788;2022-08-03T13:29:33;2.63;;;1.88;;
2001;SDS011;1003;48.002;7.788;2022-08-03T13:32:00;2.30;;;1.88;;
2001;SDS011;1003;48.002;7.788;2022-08-03T13:34:28;1.83;;;1.73;;
2001;SDS011;1003;48.002;7.788;2022-08-03T13:36:55;1.80;;;1.70;;
2001;SDS011;1003;48.002;7.788;2022-08-03T13:39:22;1.30;;;1.30;;
2001;SDS011;1003;48.002;7.788;2022-08-03T13:41:50;1.25;;;1.25;;
2001;SDS011;1003;48.002;7.788;2022-08-03T13:44:17;1.60;;;1.50;;
2001;SDS011;1003;48.002;7.788;2022-08-03T13:46:46;1.50;;;1.40;;
2001;SDS011;1003;48.002;7.788;2022-08-03T13:49:14;1.83;;;1.60;;
2001;SDS011;1003;48.002;7.788;2022-08-03T13:51:41;2.35;;;1.70;;
2001;SDS011;1003;48.002;7.788;2022-08-03T13:54:08;2.38;;;1.67;;
2001;SDS011;1003;48.002;7.788;2022-08-03T13:56:35;3.70;;;1.60;;
2001;SDS011;1003;48.002;7.788;2022-08-03T13:59:02;3.72;;;1.35;;
2001;SDS011;1003;48.002;7.788;2022-08-03T14:01:30;1.55;;;1.45;;
2001;SDS011;1003;48.002;7.788;2022-08-03T14:03:58;1.67;;;1.40;;
2001;SDS011;1003;48.002;7.788;2022-08-03T14:06:26;1.65;;;1.55;;
2001;SDS011;1003;48.002;7.788;2022-08-03T14:08:53;1.90;;;1.50;;
2001;SDS011;1003;48.002;7.788;2022-08-03T14:11:20;1.98;;;1.80;;
2001;SDS011;1003;48.002;7.788;2022-08-03T14:13:47;1.70;;;1.60;;
2001;SDS011;1003;48.002;7.788;2022-08-03T14:16:14;1.58;;;1.48;;
2001;SDS011;1003;48.002;7.788;2022-08-03T14:18:41;1.98;;;1.77;;
2001;SDS011;1003;48.002;7.788;2022-08-03T14:21:10;1.60;;;1.50;;
2001;SDS011;1003;48.002;7.788;2022-08-03T14:23:38;1.60;;;1.50;;
2001;SDS011;1003;48.002;7.788;2022-08-03T14:26:06;1.40;;;1.30;;
2001;SDS011;1003;48.002;7.788;2022-08-03T14:28:34;1.75;;;1.65;;
2001;SDS011;1003;48.002;7.788;2022-08-03T14:31:02;2.15;;;1.88;;
2001;SDS011;1003;48.002;7.788;2022-08-03T14:33:30;2.88;;;1.73;;
2001;SDS011;1003;48.002;7.788;2022-08-03T14:35:57;1.90;;;1.60;;
2001;SDS011;1003;48.002;7.788;2022-08-03T14:38:25;1.70;;;1.60;;
2001;SDS011;1003;48.002;7.788;2022-08-03T14:40:53;2.10;;;1.90;;
2001;SDS011;1003;48.002;7.788;2022-08-03T14:43:20;3.15;;;1.80;;
2001;SDS011;1003;48.002;7.788;2022-08-03T14:45:47;1.88;;;1.77;;
2001;SDS011;1003;48.002;7.788;2022-08-03T14:48:16;1.70;;;1.60;;
2001;SDS011;1003;48.002;7.788;2022-08-03T14:50:43;1.67;;;1.58;;
2001;SDS011;1003;48.002;7.788;2022-08-03T14:53:10;1.73;;;1.63;;
2001;SDS011;1003;48.002;7.788;2022-08-03T14:55:39;1.60;;;1.50;;
2001;SDS011;1003;48.002;7.788;2022-08-03T14:58:06;1.20;;;1.20;;
2001;SDS011;1003;48.002;7.788;2022-08-03T15:00:33;1.63;;;1.50;;
2001;SDS011;1003;48.002;7.788;2022-08-03T15:03:01;2.13;;;1.60;;
2001;SDS011;1003;48.002;7.788;2022-08-03T15:05:29;1.63;;;1.50;;
2001;SDS011;1003;48.002;7.788;2022-08-03T15:07:57;3.15;;;1.40;;
2001;SDS011;1003;48.002;7.788;2022-08-03T15:10:24;1.50;;;1.40;;
2001;SDS011;1003;48.002;7.788;2022-08-03T15:12:52;1.50;;;1.40;;
2001;SDS011;1003;48.002;7.788;2022-08-03T15:15:19;1.58;;;1.48;;
2001;SDS011;1003;48.002;7.788;2022-08-03T15:17:46;1.40;;;1.40;;
2001;SDS011;1003;48.002;7.788;2022-08-03T15:20:13;1.35;;;1.25;;
2001;SDS011;1003;48.002;7.788;2022-08-03T15:22:41;1.30;;;1.30;;
2001;SDS011;1003;48.002;7.788;2022-08-03T15:25:08;1.40;;;1.30;;
2001;SDS011;1003;48.002;7.788;2022-08-03T15:27:37;1.77;;;1.35;;
2001;SDS011;1003;48.002;7.788;2022-08-03T15:30:06;1.23;;;1.20;;
2001;SDS011;1003;48.002;7.788;2022-08-03T15:32:34;1.40;;;1.30;;
2001;SDS011;1003;48.002;7.788;2022-08-03T15:35:01;1.33;;;1.23;;
2001;SDS011;1003;48.002;7.788;2022-08-03T15:37:29;1.40;;;1.30;;
2001;SDS011;1003;48.002;7.788;2022-08-03T15:39:56;1.98;;;1.20;;
2001;SDS011;1003;48.002;7.788;2022-08-03T15:42:23;1.33;;;1.30;;
2001;SDS011;1003;48.002;7.788;2022-08-03T15:44:50;1.50;;;1.40;;
2001;SDS011;1003;48.002;7.788;2022-08-03T15:47:19;1.30;;;1.30;;